Time;durP1;ratioP1;P1;durP2;ratioP2;P2;SDS_P1;SDS_P2;PMS_P1;PMS_P2;Temp;Humidity;BMP_temperature;BMP_pressure;BME280_temperature;BME280_humidity;BME280_pressure;Samples;Min_cycle;Max_cycle;Signal;HPM_P1;HPM_P2
2022/10/23 00:00:06;;;;;;;;;;;13.60;99.90;;;;;;5067672;28;20762;-73
2022/10/23 00:02:33;;;;;;;;;;;13.60;99.90;;;;;;5064592;28;19930;-73
2022/10/23 00:05:00;;;;;;;;;;;13.60;99.90;;;;;;5064109;28;19924;-73
2022/10/23 00:07:27;;;;;;;;;;;13.50;99.90;;;;;;5068226;28;19925;-73
2022/10/23 00:09:54;;;;;;;;;;;13.50;99.90;;;;;;5065380;28;20408;-73
2022/10/23 00:12:22;;;;;;;;;;;13.50;99.90;;;;;;5064600;28;19928;-76
2022/10/23 00:14:49;;;;;;;;;;;13.50;99.90;;;;;;5062031;28;20459;-76
2022/10/23 00:17:15;;;;;;;;;;;13.50;99.90;;;;;;5069075;28;19932;-75
2022/10/23 00:19:42;;;;;;;;;;;13.50;99.90;;;;;;5063678;28;19925;-75
2022/10/23 00:22:10;;;;;;;;;;;13.50;99.90;;;;;;5064587;28;20416;-76
2022/10/23 00:24:36;;;;;;;;;;;13.40;99.90;;;;;;5107922;27;19973;-76
2022/10/23 00:27:03;;;;;;;;;;;13.40;99.90;;;;;;5065083;28;19939;-76
2022/10/23 00:29:32;;;;;;;;;;;13.40;99.90;;;;;;5063353;28;19924;-76
2022/10/23 00:31:59;;;;;;;;;;;13.40;99.90;;;;;;5064525;28;19932;-75
2022/10/23 00:34:26;;;;;;;;;;;13.40;99.90;;;;;;5064355;28;19981;-76
2022/10/23 00:36:52;;;;;;;;;;;13.40;99.90;;;;;;5063830;28;19994;-75
2022/10/23 00:39:19;;;;;;;;;;;13.40;99.90;;;;;;5066189;28;19964;-76
2022/10/23 00:41:46;;;;;;;;;;;13.30;99.90;;;;;;5061993;28;19928;-76
2022/10/23 00:44:28;;;;;;;;;;;13.30;99.90;;;;;;5061005;28;19929;-75
2022/10/23 00:46:56;;;;;;;;;;;13.30;99.90;;;;;;5065211;28;20141;-76
2022/10/23 00:49:24;;;;;;;;;;;13.30;99.90;;;;;;5064153;28;19928;-76
2022/10/23 00:51:53;;;;;;;;;;;13.30;99.90;;;;;;5070281;28;19924;-76
2022/10/23 00:54:21;;;;;;;;;;;13.30;99.90;;;;;;5064061;28;20023;-75
2022/10/23 00:56:49;;;;;;;;;;;13.20;99.90;;;;;;5070777;28;19928;-76
2022/10/23 00:59:15;;;;;;;;;;;13.20;99.90;;;;;;5059152;28;19931;-75
2022/10/23 01:01:42;;;;;;;;;;;13.20;99.90;;;;;;5058767;28;20011;-75
2022/10/23 01:04:11;;;;;;;;;;;13.20;99.90;;;;;;5061742;28;20398;-75
2022/10/23 01:06:42;;;;;;;;;;;13.20;99.90;;;;;;5062143;28;19981;-75
2022/10/23 01:09:12;;;;;;;;;;;13.20;99.90;;;;;;5063399;28;20015;-76
2022/10/23 01:11:42;;;;;;;;;;;13.10;99.90;;;;;;5060184;28;20024;-76
2022/10/23 01:14:15;;;;;;;;;;;13.10;99.90;;;;;;5063502;28;19944;-76
2022/10/23 01:16:46;;;;;;;;;;;13.10;99.90;;;;;;5069432;28;20347;-76
2022/10/23 01:19:18;;;;;;;;;;;13.10;99.90;;;;;;5058253;28;20438;-73
2022/10/23 01:21:49;;;;;;;;;;;13.10;99.90;;;;;;5054880;28;19925;-73
2022/10/23 01:24:21;;;;;;;;;;;13.10;99.90;;;;;;5066768;28;19966;-73
2022/10/23 01:26:57;;;;;;;;;;;13.00;99.90;;;;;;5095411;28;19925;-75
2022/10/23 01:29:29;;;;;;;;;;;13.10;99.90;;;;;;5064861;28;20019;-73
2022/10/23 01:31:58;;;;;;;;;;;13.00;99.90;;;;;;5072550;28;19962;-73
2022/10/23 01:34:29;;;;;;;;;;;13.00;99.90;;;;;;5064113;28;19932;-73
2022/10/23 01:36:57;;;;;;;;;;;13.00;99.90;;;;;;5063762;28;19928;-73
2022/10/23 01:39:26;;;;;;;;;;;12.90;99.90;;;;;;5066613;28;19924;-76
2022/10/23 01:41:55;;;;;;;;;;;12.90;99.90;;;;;;5060757;28;19924;-76
2022/10/23 01:44:34;;;;;;;;;;;12.90;99.90;;;;;;5061524;28;19924;-73
2022/10/23 01:47:03;;;;;;;;;;;12.90;99.90;;;;;;5062961;28;19932;-73
2022/10/23 01:49:33;;;;;;;;;;;12.90;99.90;;;;;;5069530;28;19942;-73
2022/10/23 01:52:01;;;;;;;;;;;12.90;99.90;;;;;;5061912;28;19924;-73
2022/10/23 01:54:30;;;;;;;;;;;12.90;99.90;;;;;;5064718;28;19929;-73
2022/10/23 01:56:58;;;;;;;;;;;12.90;99.90;;;;;;5068363;28;20376;-73
2022/10/23 01:59:30;;;;;;;;;;;12.80;99.90;;;;;;5062330;28;19925;-73
2022/10/23 02:02:00;;;;;;;;;;;12.80;99.90;;;;;;5066297;28;19931;-73
2022/10/23 02:04:29;;;;;;;;;;;12.80;99.90;;;;;;5067695;28;19924;-73
2022/10/23 02:06:56;;;;;;;;;;;12.80;99.90;;;;;;5082953;28;20275;-73
2022/10/23 02:09:23;;;;;;;;;;;12.70;99.90;;;;;;5071360;28;19971;-73
2022/10/23 02:11:54;;;;;;;;;;;12.70;99.90;;;;;;5063814;28;20364;-73
2022/10/23 02:14:27;;;;;;;;;;;12.80;99.90;;;;;;5062785;28;19933;-73
2022/10/23 02:16:56;;;;;;;;;;;12.70;99.90;;;;;;5069000;28;19924;-73
2022/10/23 02:19:28;;;;;;;;;;;12.70;99.90;;;;;;5066977;28;20539;-73
2022/10/23 02:22:07;;;;;;;;;;;12.70;99.90;;;;;;5065484;28;19963;-76
2022/10/23 02:24:37;;;;;;;;;;;12.60;99.90;;;;;;5062076;28;19932;-76
2022/10/23 02:27:10;;;;;;;;;;;12.60;99.90;;;;;;5065639;28;19924;-73
2022/10/23 02:29:40;;;;;;;;;;;12.60;99.90;;;;;;5065159;28;19960;-73
2022/10/23 02:32:07;;;;;;;;;;;12.50;99.90;;;;;;5064585;28;20117;-73
2022/10/23 02:34:36;;;;;;;;;;;12.50;99.90;;;;;;5069423;28;19924;-73
2022/10/23 02:37:02;;;;;;;;;;;12.40;99.90;;;;;;5064744;28;19936;-73
2022/10/23 02:39:29;;;;;;;;;;;12.40;99.90;;;;;;5098943;27;20675;-73
2022/10/23 02:41:59;;;;;;;;;;;12.40;99.90;;;;;;5086564;27;19944;-73
2022/10/23 02:44:32;;;;;;;;;;;12.30;99.90;;;;;;5066445;28;19939;-73
2022/10/23 02:47:03;;;;;;;;;;;12.30;99.90;;;;;;5065567;28;19981;-73
2022/10/23 02:49:33;;;;;;;;;;;12.30;99.90;;;;;;5086985;27;19932;-73
2022/10/23 02:52:08;;;;;;;;;;;12.30;99.90;;;;;;5063751;28;20451;-73
2022/10/23 02:54:42;;;;;;;;;;;12.30;99.90;;;;;;5062446;28;20379;-72
2022/10/23 02:57:14;;;;;;;;;;;12.20;99.90;;;;;;5096433;27;20362;-73
2022/10/23 02:59:43;;;;;;;;;;;12.30;99.90;;;;;;5077325;28;20386;-73
2022/10/23 03:02:16;;;;;;;;;;;12.20;99.90;;;;;;5079610;28;19936;-73
2022/10/23 03:04:44;;;;;;;;;;;12.20;99.90;;;;;;5067256;28;19924;-71
2022/10/23 03:07:12;;;;;;;;;;;12.20;99.90;;;;;;5094549;28;19938;-73
2022/10/23 03:09:39;;;;;;;;;;;12.10;99.90;;;;;;5064423;28;19967;-73
2022/10/23 03:12:07;;;;;;;;;;;12.10;99.90;;;;;;5077976;28;20305;-73
2022/10/23 03:14:34;;;;;;;;;;;12.10;99.90;;;;;;5077514;28;20412;-72
2022/10/23 03:17:02;;;;;;;;;;;12.10;99.90;;;;;;5063612;28;20169;-73
2022/10/23 03:19:29;;;;;;;;;;;12.00;99.90;;;;;;5064325;28;20011;-73
2022/10/23 03:21:56;;;;;;;;;;;12.00;99.90;;;;;;5064522;28;19924;-72
2022/10/23 03:24:24;;;;;;;;;;;12.00;99.90;;;;;;5091252;28;20391;-73
2022/10/23 03:26:52;;;;;;;;;;;12.00;99.90;;;;;;5064746;28;20313;-73
2022/10/23 03:29:24;;;;;;;;;;;12.00;99.90;;;;;;5061883;28;20026;-74
2022/10/23 03:31:51;;;;;;;;;;;11.90;99.90;;;;;;5061100;28;20026;-73
2022/10/23 03:34:18;;;;;;;;;;;11.90;99.90;;;;;;5066643;28;19939;-73
2022/10/23 03:36:45;;;;;;;;;;;11.90;99.90;;;;;;5078194;28;19963;-73
2022/10/23 03:39:11;;;;;;;;;;;11.90;99.90;;;;;;5068955;28;19976;-73
2022/10/23 03:41:40;;;;;;;;;;;11.90;99.90;;;;;;5059312;28;19985;-73
2022/10/23 03:44:07;;;;;;;;;;;11.90;99.90;;;;;;5067626;28;19924;-73
2022/10/23 03:46:34;;;;;;;;;;;11.90;99.90;;;;;;5096301;28;19933;-73
2022/10/23 03:49:01;;;;;;;;;;;11.80;99.90;;;;;;5059302;28;19977;-73
2022/10/23 03:51:28;;;;;;;;;;;11.80;99.90;;;;;;5064103;28;19967;-73
2022/10/23 03:53:54;;;;;;;;;;;11.80;99.90;;;;;;5064302;28;20366;-73
2022/10/23 03:56:21;;;;;;;;;;;11.80;99.90;;;;;;5059579;28;19979;-73
2022/10/23 03:58:49;;;;;;;;;;;11.80;99.90;;;;;;5063193;28;19960;-73
2022/10/23 04:01:16;;;;;;;;;;;11.80;99.90;;;;;;5066234;28;19924;-73
2022/10/23 04:03:45;;;;;;;;;;;11.80;99.90;;;;;;5063029;28;19948;-73
2022/10/23 04:06:11;;;;;;;;;;;11.80;99.90;;;;;;5064512;28;19928;-73
2022/10/23 04:08:39;;;;;;;;;;;11.80;99.90;;;;;;5069761;28;19924;-73
2022/10/23 04:11:12;;;;;;;;;;;11.80;99.90;;;;;;5066837;28;20186;-73
2022/10/23 04:13:49;;;;;;;;;;;11.80;99.90;;;;;;5062773;28;19924;-76
2022/10/23 04:16:17;;;;;;;;;;;11.80;99.90;;;;;;5065783;28;19924;-73
2022/10/23 04:18:44;;;;;;;;;;;11.70;99.90;;;;;;5063176;28;19924;-73
2022/10/23 04:21:11;;;;;;;;;;;11.70;99.90;;;;;;5064750;28;20019;-73
2022/10/23 04:23:39;;;;;;;;;;;11.70;99.90;;;;;;5058058;28;19970;-73
2022/10/23 04:26:11;;;;;;;;;;;11.70;99.90;;;;;;5064064;28;19983;-73
2022/10/23 04:28:38;;;;;;;;;;;11.70;99.90;;;;;;5065143;28;19924;-73
2022/10/23 04:31:06;;;;;;;;;;;11.70;99.90;;;;;;5060056;28;20031;-73
2022/10/23 04:33:33;;;;;;;;;;;11.70;99.90;;;;;;5060756;28;19925;-74
2022/10/23 04:36:00;;;;;;;;;;;11.60;99.90;;;;;;5059047;28;20168;-73
2022/10/23 04:38:27;;;;;;;;;;;11.60;99.90;;;;;;5060663;28;19925;-73
2022/10/23 04:40:53;;;;;;;;;;;11.60;99.90;;;;;;5073192;28;19947;-73
2022/10/23 04:43:22;;;;;;;;;;;11.60;99.90;;;;;;5079166;28;20366;-73
2022/10/23 04:45:49;;;;;;;;;;;11.60;99.90;;;;;;5091947;28;19924;-73
2022/10/23 04:48:17;;;;;;;;;;;11.60;99.90;;;;;;5063156;28;20417;-73
2022/10/23 04:51:13;;;;;;;;;;;11.60;99.90;;;;;;5005781;28;19925;-73
2022/10/23 04:54:03;;;;;;;;;;;11.60;99.90;;;;;;5061642;28;19932;-73
2022/10/23 04:56:53;;;;;;;;;;;11.60;99.90;;;;;;5079612;28;20018;-73
2022/10/23 04:59:21;;;;;;;;;;;11.60;99.90;;;;;;5097299;28;19983;-72
2022/10/23 05:01:49;;;;;;;;;;;11.50;99.90;;;;;;5096617;28;19934;-73
2022/10/23 05:04:17;;;;;;;;;;;11.60;99.90;;;;;;5064111;28;19934;-73
2022/10/23 05:07:13;;;;;;;;;;;11.50;99.90;;;;;;5026943;28;20376;-74
2022/10/23 05:09:59;;;;;;;;;;;11.50;99.90;;;;;;5061160;28;19924;-73
2022/10/23 05:12:30;;;;;;;;;;;11.50;99.90;;;;;;5090207;27;20413;-75
2022/10/23 05:14:57;;;;;;;;;;;11.50;99.90;;;;;;5063439;28;19940;-75
2022/10/23 05:17:27;;;;;;;;;;;11.50;99.90;;;;;;5065019;28;19931;-75
2022/10/23 05:20:00;;;;;;;;;;;11.50;99.90;;;;;;5061919;28;20024;-75
2022/10/23 05:22:29;;;;;;;;;;;11.50;99.90;;;;;;5059232;28;19993;-75
2022/10/23 05:24:56;;;;;;;;;;;11.50;99.90;;;;;;5065398;28;20398;-75
2022/10/23 05:27:25;;;;;;;;;;;11.50;99.90;;;;;;5065341;28;19971;-75
2022/10/23 05:29:54;;;;;;;;;;;11.40;99.90;;;;;;5077751;28;20398;-75
2022/10/23 05:32:25;;;;;;;;;;;11.40;99.90;;;;;;5059441;28;19947;-75
2022/10/23 05:34:53;;;;;;;;;;;11.40;99.90;;;;;;5064472;28;19929;-75
2022/10/23 05:37:21;;;;;;;;;;;11.40;99.90;;;;;;5063179;28;19928;-75
2022/10/23 05:39:48;;;;;;;;;;;11.40;99.90;;;;;;5055639;28;19928;-76
2022/10/23 05:42:17;;;;;;;;;;;11.40;99.90;;;;;;5069331;28;19964;-75
2022/10/23 05:44:45;;;;;;;;;;;11.40;99.90;;;;;;5071964;28;19924;-75
2022/10/23 05:47:23;;;;;;;;;;;11.40;99.90;;;;;;5068420;28;19924;-75
2022/10/23 05:50:19;;;;;;;;;;;11.40;99.90;;;;;;5045888;28;19928;-75
2022/10/23 05:53:16;;;;;;;;;;;11.40;99.90;;;;;;5050332;28;20035;-73
2022/10/23 05:56:10;;;;;;;;;;;11.40;99.90;;;;;;5041076;28;19928;-74
2022/10/23 05:58:53;;;;;;;;;;;11.40;99.90;;;;;;5066326;28;19930;-73
2022/10/23 06:01:46;;;;;;;;;;;11.30;99.90;;;;;;5062445;28;19933;-73
2022/10/23 06:04:17;;;;;;;;;;;11.30;99.90;;;;;;5083055;28;19924;-73
2022/10/23 06:07:07;;;;;;;;;;;11.30;99.90;;;;;;5056513;28;19924;-73
2022/10/23 06:09:35;;;;;;;;;;;11.30;99.90;;;;;;5063975;28;19924;-73
2022/10/23 06:12:02;;;;;;;;;;;11.30;99.90;;;;;;5065532;28;19932;-73
2022/10/23 06:14:31;;;;;;;;;;;11.20;99.90;;;;;;5084090;28;19925;-74
2022/10/23 06:16:58;;;;;;;;;;;11.20;99.90;;;;;;5062438;28;21224;-73
2022/10/23 06:19:25;;;;;;;;;;;11.30;99.90;;;;;;5066792;28;19925;-74
2022/10/23 06:21:55;;;;;;;;;;;11.30;99.90;;;;;;5068284;28;20360;-73
2022/10/23 06:24:32;;;;;;;;;;;11.30;99.90;;;;;;5059909;28;19932;-73
2022/10/23 06:27:04;;;;;;;;;;;11.30;99.90;;;;;;5060946;28;20675;-73
2022/10/23 06:29:40;;;;;;;;;;;11.30;99.90;;;;;;5083107;28;19940;-73
2022/10/23 06:32:07;;;;;;;;;;;11.30;99.90;;;;;;5066880;28;19925;-73
2022/10/23 06:34:34;;;;;;;;;;;11.30;99.90;;;;;;5065908;28;19935;-73
2022/10/23 06:37:01;;;;;;;;;;;11.20;99.90;;;;;;5064980;28;19924;-73
2022/10/23 06:39:35;;;;;;;;;;;11.20;99.90;;;;;;5062595;28;19924;-73
2022/10/23 06:42:24;;;;;;;;;;;11.20;99.90;;;;;;5059868;28;20733;-73
2022/10/23 06:44:56;;;;;;;;;;;11.20;99.90;;;;;;5062959;28;19928;-79
2022/10/23 06:47:50;;;;;;;;;;;11.20;99.90;;;;;;5054955;28;19948;-73
2022/10/23 06:50:45;;;;;;;;;;;11.20;99.90;;;;;;5062167;28;19932;-84
2022/10/23 06:53:16;;;;;;;;;;;11.20;99.90;;;;;;5072917;28;20011;-73
2022/10/23 06:55:49;;;;;;;;;;;11.20;99.90;;;;;;5074529;28;19932;-72
2022/10/23 06:58:17;;;;;;;;;;;11.20;99.90;;;;;;5071484;28;19924;-75
2022/10/23 07:01:07;;;;;;;;;;;11.20;99.90;;;;;;5057759;28;19978;-74
2022/10/23 07:03:35;;;;;;;;;;;11.40;99.90;;;;;;5074565;28;19924;-74
2022/10/23 07:06:06;;;;;;;;;;;11.20;99.90;;;;;;5078774;28;19924;-74
2022/10/23 07:08:33;;;;;;;;;;;11.30;99.90;;;;;;5071193;28;19925;-74
2022/10/23 07:11:03;;;;;;;;;;;11.30;99.90;;;;;;5065232;28;19986;-74
2022/10/23 07:13:32;;;;;;;;;;;11.30;99.90;;;;;;5067328;28;19953;-74
2022/10/23 07:16:21;;;;;;;;;;;11.30;99.90;;;;;;5098347;27;19925;-74
2022/10/23 07:18:49;;;;;;;;;;;11.30;99.90;;;;;;5068157;28;19959;-74
2022/10/23 07:21:28;;;;;;;;;;;11.40;99.90;;;;;;5065905;28;19931;-74
2022/10/23 07:24:01;;;;;;;;;;;11.30;99.90;;;;;;5064289;28;20255;-75
2022/10/23 07:26:31;;;;;;;;;;;11.40;99.90;;;;;;5054887;28;20070;-85
2022/10/23 07:29:00;;;;;;;;;;;11.50;99.90;;;;;;5077644;28;20313;-75
2022/10/23 07:31:27;;;;;;;;;;;11.40;99.90;;;;;;5061332;28;19931;-75
2022/10/23 07:34:14;;;;;;;;;;;11.40;99.90;;;;;;5032340;28;20819;-74
2022/10/23 07:36:43;;;;;;;;;;;11.40;99.90;;;;;;5058947;28;19929;-75
2022/10/23 07:39:10;;;;;;;;;;;11.40;99.90;;;;;;5058697;28;19928;-75
2022/10/23 07:41:44;;;;;;;;;;;11.50;99.90;;;;;;5061908;28;19998;-75
2022/10/23 07:44:12;;;;;;;;;;;11.40;99.90;;;;;;5057473;28;19971;-75
2022/10/23 07:46:39;;;;;;;;;;;11.40;99.90;;;;;;5094174;27;19924;-75
2022/10/23 07:49:06;;;;;;;;;;;11.40;99.90;;;;;;5061777;28;19936;-75
2022/10/23 07:51:34;;;;;;;;;;;11.40;99.90;;;;;;5056676;28;19931;-75
2022/10/23 07:54:01;;;;;;;;;;;11.40;99.90;;;;;;5056996;28;19939;-75
2022/10/23 07:56:54;;;;;;;;;;;11.40;99.90;;;;;;5041977;28;19932;-83
2022/10/23 07:59:25;;;;;;;;;;;11.40;99.90;;;;;;5060013;28;20019;-73
2022/10/23 08:01:55;;;;;;;;;;;11.40;99.90;;;;;;5067498;28;19932;-73
2022/10/23 08:04:23;;;;;;;;;;;11.40;99.90;;;;;;5095220;28;19932;-73
2022/10/23 08:06:59;;;;;;;;;;;11.40;99.90;;;;;;5043806;28;19940;-72
2022/10/23 08:09:28;;;;;;;;;;;11.40;99.90;;;;;;5060852;28;20015;-73
2022/10/23 08:11:55;;;;;;;;;;;11.40;99.90;;;;;;5058254;28;19928;-77
2022/10/23 08:14:26;;;;;;;;;;;11.40;99.90;;;;;;5055583;28;20831;-71
2022/10/23 08:16:52;;;;;;;;;;;11.40;99.90;;;;;;5069737;28;19960;-73
2022/10/23 08:19:19;;;;;;;;;;;11.40;99.90;;;;;;5056289;28;20468;-73
2022/10/23 08:21:53;;;;;;;;;;;11.50;99.90;;;;;;5056743;28;19932;-73
2022/10/23 08:24:20;;;;;;;;;;;11.50;99.90;;;;;;5067877;28;19929;-73
2022/10/23 08:26:49;;;;;;;;;;;11.50;99.90;;;;;;5051818;28;19925;-73
2022/10/23 08:29:17;;;;;;;;;;;11.50;99.90;;;;;;5060987;28;20284;-73
2022/10/23 08:31:46;;;;;;;;;;;11.50;99.90;;;;;;5051417;28;20232;-72
2022/10/23 08:34:27;;;;;;;;;;;11.50;99.90;;;;;;5088799;27;19928;-73
2022/10/23 08:36:54;;;;;;;;;;;11.50;99.90;;;;;;5057502;28;20011;-72
2022/10/23 08:39:23;;;;;;;;;;;11.50;99.90;;;;;;5085982;27;19951;-73
2022/10/23 08:42:17;;;;;;;;;;;11.50;99.90;;;;;;5057908;28;19928;-78
2022/10/23 08:44:48;;;;;;;;;;;11.60;99.90;;;;;;5057453;28;19940;-72
2022/10/23 08:47:24;;;;;;;;;;;11.50;99.90;;;;;;5056705;28;19932;-72
2022/10/23 08:50:25;;;;;;;;;;;11.50;99.90;;;;;;5032912;28;20181;-73
2022/10/23 08:52:56;;;;;;;;;;;11.50;99.90;;;;;;5056168;28;19999;-73
2022/10/23 08:55:25;;;;;;;;;;;11.50;99.90;;;;;;5058197;28;19976;-77
2022/10/23 08:57:55;;;;;;;;;;;11.50;99.90;;;;;;5054830;28;19983;-74
2022/10/23 09:00:22;;;;;;;;;;;11.50;99.90;;;;;;5054069;28;20015;-73
2022/10/23 09:02:51;;;;;;;;;;;11.50;99.90;;;;;;5048513;28;20014;-83
2022/10/23 09:05:21;;;;;;;;;;;11.50;99.90;;;;;;5060187;28;20362;-73
2022/10/23 09:08:06;;;;;;;;;;;11.50;99.90;;;;;;5049847;28;19924;-73
2022/10/23 09:10:51;;;;;;;;;;;11.60;99.90;;;;;;5056385;28;20482;-73
2022/10/23 09:13:36;;;;;;;;;;;11.60;99.90;;;;;;5055050;28;19934;-76
2022/10/23 09:16:10;;;;;;;;;;;11.60;99.90;;;;;;5056943;28;20011;-74
2022/10/23 09:18:40;;;;;;;;;;;11.60;99.90;;;;;;5052253;28;19924;-78
2022/10/23 09:21:08;;;;;;;;;;;11.60;99.90;;;;;;5049417;28;20450;-76
2022/10/23 09:23:35;;;;;;;;;;;11.60;99.90;;;;;;5054680;28;19940;-76
2022/10/23 09:26:02;;;;;;;;;;;11.60;99.90;;;;;;5050301;28;19932;-78
2022/10/23 09:28:30;;;;;;;;;;;11.60;99.90;;;;;;5046769;28;19928;-78
2022/10/23 09:31:05;;;;;;;;;;;11.60;99.90;;;;;;5060235;28;19934;-75
2022/10/23 09:33:33;;;;;;;;;;;11.60;99.90;;;;;;5059228;28;20014;-77
2022/10/23 09:36:03;;;;;;;;;;;11.60;99.90;;;;;;5056388;28;19936;-85
2022/10/23 09:38:31;;;;;;;;;;;11.60;99.90;;;;;;5067899;28;20027;-75
2022/10/23 09:40:58;;;;;;;;;;;11.70;99.90;;;;;;5059537;28;19924;-75
2022/10/23 09:43:26;;;;;;;;;;;11.70;99.90;;;;;;5054794;28;20021;-75
2022/10/23 09:46:00;;;;;;;;;;;11.70;99.90;;;;;;5067481;28;20474;-75
2022/10/23 09:48:27;;;;;;;;;;;11.70;99.90;;;;;;5056708;28;19955;-72
2022/10/23 09:50:55;;;;;;;;;;;11.70;99.90;;;;;;5071002;28;19925;-73
2022/10/23 09:53:30;;;;;;;;;;;11.70;99.90;;;;;;5048075;28;20334;-72
2022/10/23 09:55:58;;;;;;;;;;;11.70;99.90;;;;;;5050782;28;19935;-72
2022/10/23 09:58:29;;;;;;;;;;;11.70;99.90;;;;;;5055707;28;19932;-72
2022/10/23 10:00:56;;;;;;;;;;;11.80;99.90;;;;;;5052888;28;19978;-72
2022/10/23 10:03:48;;;;;;;;;;;11.80;99.90;;;;;;5051952;28;19932;-73
2022/10/23 10:06:21;;;;;;;;;;;11.80;99.90;;;;;;5055134;28;19935;-73
2022/10/23 10:08:51;;;;;;;;;;;11.80;99.90;;;;;;5048535;28;20505;-72
2022/10/23 10:11:21;;;;;;;;;;;11.80;99.90;;;;;;5050806;28;20012;-73
2022/10/23 10:14:09;;;;;;;;;;;11.80;99.90;;;;;;5051438;28;20445;-73
2022/10/23 10:16:41;;;;;;;;;;;11.80;99.90;;;;;;5052143;28;19940;-73
2022/10/23 10:19:14;;;;;;;;;;;11.90;99.90;;;;;;5054599;28;19925;-73
2022/10/23 10:21:43;;;;;;;;;;;11.80;99.90;;;;;;5048036;28;20015;-73
2022/10/23 10:24:14;;;;;;;;;;;11.80;99.90;;;;;;5055474;28;20039;-73
2022/10/23 10:26:49;;;;;;;;;;;11.80;99.90;;;;;;5054662;28;20018;-73
2022/10/23 10:29:22;;;;;;;;;;;11.90;99.90;;;;;;5067284;28;19945;-73
2022/10/23 10:31:54;;;;;;;;;;;11.90;99.90;;;;;;5055270;28;19963;-73
2022/10/23 10:34:25;;;;;;;;;;;11.90;99.90;;;;;;5057428;28;20006;-72
2022/10/23 10:36:54;;;;;;;;;;;12.00;99.90;;;;;;5052873;28;20028;-78
2022/10/23 10:39:27;;;;;;;;;;;11.90;99.90;;;;;;5057136;28;20026;-80
2022/10/23 10:42:02;;;;;;;;;;;11.90;99.90;;;;;;5059038;28;19932;-82
2022/10/23 10:44:37;;;;;;;;;;;11.90;99.90;;;;;;5053023;28;20061;-72
2022/10/23 10:47:09;;;;;;;;;;;11.90;99.90;;;;;;5054139;28;19938;-75
2022/10/23 10:49:40;;;;;;;;;;;11.90;99.90;;;;;;5060727;28;19925;-72
2022/10/23 10:52:22;;;;;;;;;;;11.90;99.90;;;;;;5060240;28;19956;-73
2022/10/23 10:54:54;;;;;;;;;;;11.90;99.90;;;;;;5063364;28;20379;-72
2022/10/23 10:57:28;;;;;;;;;;;12.00;99.90;;;;;;5059785;28;20231;-80
2022/10/23 10:59:59;;;;;;;;;;;12.00;99.90;;;;;;5055576;28;19928;-75
2022/10/23 11:02:27;;;;;;;;;;;12.00;99.90;;;;;;5056754;28;19948;-73
2022/10/23 11:04:57;;;;;;;;;;;12.00;99.90;;;;;;5053261;28;20135;-77
2022/10/23 11:07:37;;;;;;;;;;;12.00;99.90;;;;;;5045502;28;19976;-75
2022/10/23 11:10:15;;;;;;;;;;;12.00;99.90;;;;;;5049123;28;19931;-71
2022/10/23 11:12:42;;;;;;;;;;;12.00;99.90;;;;;;5069152;28;19999;-72
2022/10/23 11:15:12;;;;;;;;;;;12.00;99.90;;;;;;5097496;27;19956;-72
2022/10/23 11:17:39;;;;;;;;;;;12.10;99.90;;;;;;5070327;28;19923;-71
2022/10/23 11:20:14;;;;;;;;;;;12.10;99.90;;;;;;5069127;28;19924;-72
2022/10/23 11:22:46;;;;;;;;;;;12.10;99.90;;;;;;5068064;28;19936;-72
2022/10/23 11:25:43;;;;;;;;;;;12.10;99.90;;;;;;5083610;28;19954;-72
2022/10/23 11:28:18;;;;;;;;;;;12.10;99.90;;;;;;5064123;28;20279;-72
2022/10/23 11:30:54;;;;;;;;;;;12.10;99.90;;;;;;5066962;28;20404;-72
2022/10/23 11:33:39;;;;;;;;;;;12.10;99.90;;;;;;5063557;28;19931;-72
2022/10/23 11:36:12;;;;;;;;;;;12.10;99.90;;;;;;5068336;28;19924;-72
2022/10/23 11:38:40;;;;;;;;;;;12.20;99.90;;;;;;5067428;28;19924;-71
2022/10/23 11:41:17;;;;;;;;;;;12.20;99.90;;;;;;5063115;28;20403;-72
2022/10/23 11:43:47;;;;;;;;;;;12.20;99.90;;;;;;5063239;28;19985;-72
2022/10/23 11:46:15;;;;;;;;;;;12.20;99.90;;;;;;5065884;28;19936;-72
2022/10/23 11:48:42;;;;;;;;;;;12.30;99.90;;;;;;5067293;28;19931;-72
2022/10/23 11:51:26;;;;;;;;;;;12.30;99.90;;;;;;5063665;28;19994;-72
2022/10/23 11:53:53;;;;;;;;;;;12.30;99.90;;;;;;5065789;28;20366;-72
2022/10/23 11:56:25;;;;;;;;;;;12.30;99.90;;;;;;5068204;28;20394;-72
2022/10/23 11:58:53;;;;;;;;;;;12.30;99.90;;;;;;5072591;28;20027;-72
2022/10/23 12:01:27;;;;;;;;;;;12.40;99.90;;;;;;5063773;28;19979;-72
2022/10/23 12:03:56;;;;;;;;;;;12.40;99.90;;;;;;5062851;28;20014;-72
2022/10/23 12:06:25;;;;;;;;;;;12.40;99.90;;;;;;5065751;28;20035;-72
2022/10/23 12:08:54;;;;;;;;;;;12.40;99.90;;;;;;5067237;28;19925;-72
2022/10/23 12:11:40;;;;;;;;;;;12.40;99.90;;;;;;5063520;28;19924;-72
2022/10/23 12:14:25;;;;;;;;;;;12.50;99.90;;;;;;5064303;28;20221;-72
2022/10/23 12:16:51;;;;;;;;;;;12.50;99.90;;;;;;5063628;28;19925;-72
2022/10/23 12:19:20;;;;;;;;;;;12.50;99.90;;;;;;5066072;28;19966;-72
2022/10/23 12:21:50;;;;;;;;;;;12.50;99.90;;;;;;5065578;28;20031;-72
2022/10/23 12:24:24;;;;;;;;;;;12.60;99.90;;;;;;5072359;28;20015;-72
2022/10/23 12:27:01;;;;;;;;;;;12.60;99.90;;;;;;5061339;28;20012;-72
2022/10/23 12:29:33;;;;;;;;;;;12.60;99.90;;;;;;5070132;28;19960;-72
2022/10/23 12:32:06;;;;;;;;;;;12.60;99.90;;;;;;5064198;28;20201;-72
2022/10/23 12:34:38;;;;;;;;;;;12.70;99.90;;;;;;5061808;28;19931;-72
2022/10/23 12:37:11;;;;;;;;;;;12.70;99.90;;;;;;5067564;28;19928;-72
2022/10/23 12:39:39;;;;;;;;;;;12.70;99.90;;;;;;5065908;28;19924;-72
2022/10/23 12:42:15;;;;;;;;;;;12.80;99.90;;;;;;5056141;28;19932;-72
2022/10/23 12:44:42;;;;;;;;;;;12.80;99.90;;;;;;5062633;28;19924;-72
2022/10/23 12:47:15;;;;;;;;;;;12.80;99.90;;;;;;5065106;28;19971;-72
2022/10/23 12:49:47;;;;;;;;;;;12.80;99.90;;;;;;5069303;28;19963;-72
2022/10/23 12:52:15;;;;;;;;;;;12.90;99.90;;;;;;5058582;28;20332;-72
2022/10/23 12:54:42;;;;;;;;;;;12.90;99.90;;;;;;5073932;28;19924;-72
2022/10/23 12:57:18;;;;;;;;;;;13.00;99.90;;;;;;5066692;28;20454;-72
2022/10/23 12:59:45;;;;;;;;;;;13.00;99.90;;;;;;5065209;28;19974;-72
2022/10/23 13:02:21;;;;;;;;;;;13.00;99.90;;;;;;5068087;28;20318;-71
2022/10/23 13:04:49;;;;;;;;;;;13.10;99.90;;;;;;5063295;28;19978;-72
2022/10/23 13:07:18;;;;;;;;;;;13.10;99.90;;;;;;5068600;28;20027;-71
2022/10/23 13:09:45;;;;;;;;;;;13.10;99.90;;;;;;5062303;28;19939;-71
2022/10/23 13:12:29;;;;;;;;;;;13.20;99.90;;;;;;5062456;28;20376;-72
2022/10/23 13:14:59;;;;;;;;;;;13.20;99.90;;;;;;5061797;28;20087;-71
2022/10/23 13:17:36;;;;;;;;;;;13.30;99.90;;;;;;5066484;28;19929;-71
2022/10/23 13:20:20;;;;;;;;;;;13.30;99.90;;;;;;5062349;28;19970;-72
2022/10/23 13:22:48;;;;;;;;;;;13.40;99.90;;;;;;5061456;28;20019;-72
2022/10/23 13:25:22;;;;;;;;;;;13.40;99.90;;;;;;5100990;28;20378;-72
2022/10/23 13:27:50;;;;;;;;;;;13.40;99.90;;;;;;5061678;28;19924;-72
2022/10/23 13:30:27;;;;;;;;;;;13.50;99.90;;;;;;5064577;28;19963;-72
2022/10/23 13:32:54;;;;;;;;;;;13.50;99.90;;;;;;5063409;28;20002;-72
2022/10/23 13:35:21;;;;;;;;;;;13.60;99.90;;;;;;5061362;28;20023;-71
2022/10/23 13:37:49;;;;;;;;;;;13.60;99.90;;;;;;5070341;28;19976;-72
2022/10/23 13:40:22;;;;;;;;;;;13.60;99.90;;;;;;5067721;28;19929;-72
2022/10/23 13:42:51;;;;;;;;;;;13.70;99.90;;;;;;5066992;28;19932;-71
2022/10/23 13:45:19;;;;;;;;;;;13.70;99.90;;;;;;5065014;28;19966;-74
2022/10/23 13:47:46;;;;;;;;;;;13.70;99.90;;;;;;5064676;28;19982;-74
2022/10/23 13:50:13;;;;;;;;;;;13.80;99.90;;;;;;5066045;28;19928;-74
2022/10/23 13:52:40;;;;;;;;;;;13.80;99.90;;;;;;5062672;28;19971;-74
2022/10/23 13:55:10;;;;;;;;;;;13.80;99.90;;;;;;5068590;28;19942;-73
2022/10/23 13:57:37;;;;;;;;;;;13.90;99.90;;;;;;5063537;28;19958;-75
2022/10/23 14:00:06;;;;;;;;;;;13.90;99.90;;;;;;5069266;28;19974;-75
2022/10/23 14:02:38;;;;;;;;;;;13.90;99.90;;;;;;5065262;28;19939;-74
2022/10/23 14:05:05;;;;;;;;;;;13.90;99.90;;;;;;5061986;28;19956;-75
2022/10/23 14:07:32;;;;;;;;;;;14.00;99.90;;;;;;5066836;28;19928;-74
2022/10/23 14:09:58;;;;;;;;;;;14.00;99.90;;;;;;5061621;28;19931;-74
2022/10/23 14:12:25;;;;;;;;;;;14.10;99.90;;;;;;5071677;28;20377;-75
2022/10/23 14:14:52;;;;;;;;;;;14.10;99.90;;;;;;5068742;28;19956;-75
2022/10/23 14:17:20;;;;;;;;;;;14.10;99.90;;;;;;5063177;28;20009;-76
2022/10/23 14:19:48;;;;;;;;;;;14.10;99.90;;;;;;5069137;28;20387;-74
2022/10/23 14:22:16;;;;;;;;;;;14.20;99.90;;;;;;5101882;27;20007;-76
2022/10/23 14:24:43;;;;;;;;;;;14.30;99.90;;;;;;5067140;28;19928;-75
2022/10/23 14:27:11;;;;;;;;;;;14.20;99.90;;;;;;5080766;28;19928;-75
2022/10/23 14:29:39;;;;;;;;;;;14.20;99.90;;;;;;5068976;28;19924;-76
2022/10/23 14:32:06;;;;;;;;;;;14.30;99.90;;;;;;5068440;28;19955;-75
2022/10/23 14:34:34;;;;;;;;;;;14.30;99.90;;;;;;5068891;28;19960;-75
2022/10/23 14:37:02;;;;;;;;;;;14.30;99.90;;;;;;5064037;28;20355;-75
2022/10/23 14:39:29;;;;;;;;;;;14.30;99.90;;;;;;5065720;28;19929;-75